createdAt,value
2022-11-06T00:00:16.600Z,1.08
2022-11-06T00:02:43.683Z,1.10
2022-11-06T00:05:28.893Z,1.05
2022-11-06T00:07:55.963Z,0.98
2022-11-06T00:10:22.915Z,1.00
2022-11-06T00:12:49.901Z,0.90
2022-11-06T00:15:16.937Z,1.00
2022-11-06T00:17:43.780Z,0.90
2022-11-06T00:20:10.940Z,1.58
2022-11-06T00:22:37.813Z,1.17
2022-11-06T00:25:05.613Z,1.33
2022-11-06T00:27:32.528Z,1.20
2022-11-06T00:29:59.373Z,1.00
2022-11-06T00:32:26.234Z,1.17
2022-11-06T00:34:53.078Z,1.40
2022-11-06T00:37:19.899Z,1.20
2022-11-06T00:39:46.770Z,1.27
2022-11-06T00:42:13.631Z,1.10
2022-11-06T00:44:40.609Z,0.90
2022-11-06T00:47:07.454Z,1.10
2022-11-06T00:49:34.350Z,1.30
2022-11-06T00:52:01.308Z,1.15
2022-11-06T00:54:28.267Z,1.10
2022-11-06T00:56:55.155Z,1.20
2022-11-06T00:59:22.138Z,1.10
2022-11-06T01:01:49.054Z,1.20
2022-11-06T01:04:18.403Z,1.35
2022-11-06T01:06:48.414Z,1.00
2022-11-06T01:09:17.264Z,1.30
2022-11-06T01:12:11.709Z,1.40
2022-11-06T01:14:33.285Z,1.10
2022-11-06T01:17:00.204Z,1.15
2022-11-06T01:19:27.084Z,1.20
2022-11-06T01:21:54.436Z,1.20
2022-11-06T01:24:23.627Z,1.10
2022-11-06T01:27:12.549Z,1.25
2022-11-06T01:29:37.580Z,0.95
2022-11-06T01:32:04.772Z,1.00
2022-11-06T01:34:31.623Z,1.10
2022-11-06T01:36:58.519Z,1.10
2022-11-06T01:39:25.340Z,1.00
2022-11-06T01:41:52.881Z,1.10
2022-11-06T01:44:32.020Z,1.10
2022-11-06T01:46:59.366Z,1.20
2022-11-06T01:49:26.304Z,1.10
2022-11-06T01:52:01.352Z,1.10
2022-11-06T01:54:28.244Z,0.95
2022-11-06T01:56:56.533Z,1.02
2022-11-06T01:59:25.717Z,0.90
2022-11-06T02:01:52.789Z,1.05
2022-11-06T02:04:28.761Z,1.38
2022-11-06T02:06:55.663Z,1.45
2022-11-06T02:09:22.528Z,1.60
2022-11-06T02:12:15.667Z,1.40
2022-11-06T02:15:00.943Z,1.40
2022-11-06T02:17:50.390Z,1.08
2022-11-06T02:20:50.551Z,1.50
2022-11-06T02:23:46.290Z,1.45
2022-11-06T02:26:42.973Z,1.50
2022-11-06T02:29:11.351Z,1.55
2022-11-06T02:31:38.577Z,1.67
2022-11-06T02:34:06.754Z,1.65
2022-11-06T02:36:35.648Z,1.65
2022-11-06T02:39:05.074Z,2.00
2022-11-06T02:41:37.532Z,2.15
2022-11-06T02:44:07.272Z,1.63
2022-11-06T02:49:25.936Z,1.40
2022-11-06T02:52:00.814Z,1.08
2022-11-06T02:54:28.587Z,1.02
2022-11-06T02:56:55.772Z,1.70
2022-11-06T02:59:25.324Z,1.20
2022-11-06T03:01:55.237Z,1.58
2022-11-06T03:06:54.457Z,1.50
2022-11-06T03:09:22.624Z,1.27
2022-11-06T03:11:54.127Z,1.90
2022-11-06T03:14:27.051Z,1.40
2022-11-06T03:16:53.861Z,1.40
2022-11-06T03:19:30.327Z,1.40
2022-11-06T03:22:04.074Z,1.52
2022-11-06T03:24:51.174Z,1.80
2022-11-06T03:27:24.009Z,1.40
2022-11-06T03:29:52.869Z,1.75
2022-11-06T03:32:42.104Z,2.40
2022-11-06T03:35:32.328Z,1.35
2022-11-06T03:38:04.169Z,2.40
2022-11-06T03:40:32.669Z,1.80
2022-11-06T03:43:01.278Z,1.77
2022-11-06T03:45:28.181Z,1.60
2022-11-06T03:48:21.941Z,2.03
2022-11-06T03:50:54.544Z,1.50
2022-11-06T03:53:23.508Z,1.85
2022-11-06T03:56:00.315Z,1.57
2022-11-06T03:58:30.507Z,1.92
2022-11-06T04:00:57.386Z,1.75
2022-11-06T04:03:25.361Z,1.80
2022-11-06T04:05:55.149Z,2.05
2022-11-06T04:08:41.003Z,1.50
2022-11-06T04:11:26.257Z,1.23
2022-11-06T04:14:00.891Z,1.15
2022-11-06T04:16:37.974Z,1.00
2022-11-06T04:19:10.882Z,0.70
2022-11-06T04:21:54.017Z,0.77
2022-11-06T04:25:03.708Z,0.70
2022-11-06T04:27:36.481Z,0.60
2022-11-06T04:30:10.914Z,1.10
2022-11-06T04:33:00.770Z,1.05
2022-11-06T04:36:18.721Z,0.88
2022-11-06T04:38:54.516Z,1.10
2022-11-06T04:41:34.762Z,1.00
2022-11-06T04:44:18.861Z,0.70
2022-11-06T04:46:48.488Z,1.02
2022-11-06T04:49:15.403Z,0.70
2022-11-06T04:51:43.424Z,0.75
2022-11-06T04:54:10.335Z,0.88
2022-11-06T04:56:41.473Z,1.65
2022-11-06T04:59:14.663Z,1.00
2022-11-06T05:01:41.589Z,1.10
2022-11-06T05:04:08.920Z,1.10
2022-11-06T05:06:35.775Z,1.45
2022-11-06T05:09:02.654Z,1.17
2022-11-06T05:11:29.569Z,1.30
2022-11-06T05:13:56.475Z,1.20
2022-11-06T05:16:23.336Z,1.33
2022-11-06T05:18:50.179Z,2.03
2022-11-06T05:21:35.830Z,2.17
2022-11-06T05:24:03.181Z,2.20
2022-11-06T05:26:30.102Z,1.80
2022-11-06T05:28:57.067Z,1.95
2022-11-06T05:31:24.526Z,2.10
2022-11-06T05:33:51.373Z,1.48
2022-11-06T05:36:18.183Z,1.33
2022-11-06T05:38:45.064Z,2.05
2022-11-06T05:41:12.188Z,2.15
2022-11-06T05:43:39.250Z,1.77
2022-11-06T05:46:15.008Z,1.88
2022-11-06T05:48:50.995Z,1.50
2022-11-06T05:51:18.075Z,1.00
2022-11-06T05:53:44.941Z,1.40
2022-11-06T05:56:11.920Z,1.70
2022-11-06T05:58:38.850Z,1.45
2022-11-06T06:01:06.390Z,1.70
2022-11-06T06:03:33.350Z,2.45
2022-11-06T06:06:00.202Z,1.80
2022-11-06T06:08:27.027Z,2.53
2022-11-06T06:10:53.874Z,2.15
2022-11-06T06:13:20.781Z,2.10
2022-11-06T06:15:47.610Z,1.90
2022-11-06T06:18:14.720Z,1.65
2022-11-06T06:20:41.717Z,1.50
2022-11-06T06:23:09.817Z,0.90
2022-11-06T06:25:36.686Z,0.82
2022-11-06T06:28:03.772Z,1.00
2022-11-06T06:30:30.671Z,0.80
2022-11-06T06:32:57.622Z,0.70
2022-11-06T06:35:24.558Z,0.70
2022-11-06T06:37:53.017Z,0.60
2022-11-06T06:40:20.517Z,0.80
2022-11-06T06:42:47.404Z,0.98
2022-11-06T06:45:14.305Z,1.17
2022-11-06T06:47:41.384Z,0.70
2022-11-06T06:50:08.769Z,0.70
2022-11-06T06:52:35.624Z,1.00
2022-11-06T06:55:02.450Z,1.20
2022-11-06T06:57:29.314Z,0.90
2022-11-06T06:59:56.172Z,1.23
2022-11-06T07:02:23.258Z,1.20
2022-11-06T07:04:50.140Z,0.90
2022-11-06T07:07:17.062Z,1.30
2022-11-06T07:09:43.905Z,1.38
2022-11-06T07:12:10.784Z,1.02
2022-11-06T07:14:37.704Z,1.23
2022-11-06T07:17:04.546Z,1.77
2022-11-06T07:19:31.380Z,1.60
2022-11-06T07:21:58.243Z,1.58
2022-11-06T07:24:25.072Z,1.50
2022-11-06T07:26:51.958Z,1.55
2022-11-06T07:29:18.783Z,1.70
2022-11-06T07:31:45.642Z,1.40
2022-11-06T07:34:12.569Z,1.60
2022-11-06T07:36:39.453Z,1.13
2022-11-06T07:39:06.318Z,1.60
2022-11-06T07:41:33.328Z,1.45
2022-11-06T07:44:00.192Z,1.40
2022-11-06T07:46:27.089Z,1.48
2022-11-06T07:48:54.818Z,1.40
2022-11-06T07:51:21.700Z,1.48
2022-11-06T07:53:48.593Z,1.50
2022-11-06T07:56:15.484Z,1.60
2022-11-06T07:58:42.332Z,1.50
2022-11-06T08:01:18.564Z,1.20
2022-11-06T08:03:45.630Z,1.85
2022-11-06T08:06:12.482Z,1.23
2022-11-06T08:08:39.378Z,1.50
2022-11-06T08:11:07.528Z,1.50
2022-11-06T08:13:35.137Z,1.30
2022-11-06T08:16:11.524Z,1.90
2022-11-06T08:18:38.561Z,1.15
2022-11-06T08:21:05.969Z,1.27
2022-11-06T08:23:33.248Z,0.90
2022-11-06T08:26:01.852Z,1.27
2022-11-06T08:28:28.844Z,1.55
2022-11-06T08:30:55.724Z,1.00
2022-11-06T08:33:22.863Z,1.00
2022-11-06T08:35:49.768Z,1.40
2022-11-06T08:38:16.990Z,1.60
2022-11-06T08:40:47.020Z,1.60
2022-11-06T08:43:16.661Z,1.00
2022-11-06T08:45:43.714Z,1.20
2022-11-06T08:48:10.736Z,1.20
2022-11-06T08:50:38.599Z,1.27
2022-11-06T08:53:06.495Z,1.10
2022-11-06T08:55:34.008Z,1.10
2022-11-06T08:58:01.119Z,1.42
2022-11-06T09:00:28.264Z,1.38
2022-11-06T09:02:59.514Z,1.00
2022-11-06T09:05:26.525Z,0.77
2022-11-06T09:07:53.607Z,1.00
2022-11-06T09:10:20.473Z,0.70
2022-11-06T09:12:47.316Z,0.85
2022-11-06T09:15:14.256Z,0.75
2022-11-06T09:17:48.093Z,0.90
2022-11-06T09:20:15.276Z,1.00
2022-11-06T09:22:42.313Z,1.13
2022-11-06T09:25:09.873Z,1.30
2022-11-06T09:27:55.868Z,1.10
2022-11-06T09:30:26.409Z,1.10
2022-11-06T09:32:55.599Z,1.20
2022-11-06T09:35:23.611Z,1.02
2022-11-06T09:37:50.517Z,0.98
2022-11-06T09:40:37.516Z,1.20
2022-11-06T09:44:04.203Z,1.20
2022-11-06T09:46:30.627Z,0.85
2022-11-06T09:49:02.363Z,0.95
2022-11-06T09:51:32.135Z,1.00
2022-11-06T09:54:33.179Z,0.50
2022-11-06T09:57:05.897Z,0.63
2022-11-06T09:59:34.697Z,0.63
2022-11-06T10:02:01.978Z,0.68
2022-11-06T10:04:55.674Z,0.60
2022-11-06T10:07:29.558Z,0.80
2022-11-06T10:09:56.860Z,0.88
2022-11-06T10:12:42.519Z,0.95
2022-11-06T10:15:20.308Z,0.77
2022-11-06T10:17:58.198Z,0.85
2022-11-06T10:20:51.725Z,0.73
2022-11-06T10:23:51.921Z,0.63
2022-11-06T10:26:20.079Z,0.73
2022-11-06T10:29:18.074Z,0.77
2022-11-06T10:32:03.031Z,0.73
2022-11-06T10:34:33.771Z,0.60
2022-11-06T10:37:02.287Z,0.70
2022-11-06T10:39:30.917Z,0.70
2022-11-06T10:42:17.464Z,0.70
2022-11-06T10:44:55.393Z,1.00
2022-11-06T10:47:23.833Z,0.98
2022-11-06T10:49:53.259Z,0.90
2022-11-06T10:52:42.105Z,0.90
2022-11-06T10:55:46.058Z,0.70
2022-11-06T10:58:15.139Z,0.85
2022-11-06T11:00:42.246Z,0.60
2022-11-06T11:03:36.040Z,0.60
2022-11-06T11:06:04.272Z,0.60
2022-11-06T11:08:31.175Z,0.80
2022-11-06T11:11:18.226Z,0.93
2022-11-06T11:14:11.845Z,0.90
2022-11-06T11:16:40.121Z,0.98
2022-11-06T11:19:45.761Z,0.80
2022-11-06T11:22:20.104Z,0.93
2022-11-06T11:25:03.745Z,0.90
2022-11-06T11:27:32.565Z,1.00
2022-11-06T11:29:59.494Z,1.13
2022-11-06T11:32:26.364Z,1.33
2022-11-06T11:34:56.799Z,1.23
2022-11-06T11:37:28.558Z,1.10
2022-11-06T11:39:55.638Z,1.27
2022-11-06T11:42:32.041Z,1.08
2022-11-06T11:45:11.209Z,1.10
2022-11-06T11:47:39.574Z,1.00
2022-11-06T11:50:26.203Z,1.30
2022-11-06T11:53:10.163Z,1.23
2022-11-06T11:55:40.545Z,1.10
2022-11-06T12:00:58.203Z,1.80
2022-11-06T12:03:32.137Z,2.03
2022-11-06T12:06:09.835Z,2.17
2022-11-06T12:08:36.761Z,2.08
2022-11-06T12:11:04.302Z,1.77
2022-11-06T12:13:31.180Z,1.63
2022-11-06T12:16:04.500Z,2.50
2022-11-06T12:18:48.545Z,2.30
2022-11-06T12:21:26.756Z,1.63
2022-11-06T12:23:56.544Z,1.90
2022-11-06T12:29:20.034Z,2.58
2022-11-06T12:32:14.888Z,2.22
2022-11-06T12:34:52.836Z,1.90
2022-11-06T12:37:25.054Z,1.92
2022-11-06T12:39:59.181Z,1.50
2022-11-06T12:42:27.617Z,1.98
2022-11-06T12:44:54.486Z,1.50
2022-11-06T12:47:30.681Z,2.38
2022-11-06T12:50:21.980Z,1.60
2022-11-06T12:53:25.271Z,2.30
2022-11-06T12:56:13.281Z,2.17
2022-11-06T12:59:01.125Z,1.98
2022-11-06T13:01:45.277Z,1.88
2022-11-06T13:04:28.892Z,2.22
2022-11-06T13:06:58.704Z,2.15
2022-11-06T13:12:07.860Z,3.00
2022-11-06T13:15:02.713Z,2.95
2022-11-06T13:17:46.391Z,3.67
2022-11-06T13:20:52.893Z,2.67
2022-11-06T13:23:28.197Z,2.72
2022-11-06T13:26:09.693Z,2.88
2022-11-06T13:28:56.120Z,3.38
2022-11-06T13:31:25.856Z,2.67
2022-11-06T13:33:54.544Z,3.35
2022-11-06T13:36:21.410Z,2.47
2022-11-06T13:38:55.288Z,3.22
2022-11-06T13:41:24.037Z,2.83
2022-11-06T13:44:06.389Z,2.08
2022-11-06T13:46:39.912Z,2.30
2022-11-06T13:49:28.381Z,1.65
2022-11-06T13:52:03.641Z,1.92
2022-11-06T13:54:58.809Z,1.80
2022-11-06T13:57:46.189Z,1.70
2022-11-06T14:00:28.237Z,1.20
2022-11-06T14:02:57.964Z,1.23
2022-11-06T14:05:29.672Z,1.40
2022-11-06T14:07:56.511Z,1.20
2022-11-06T14:10:34.322Z,1.02
2022-11-06T14:13:02.312Z,1.05
2022-11-06T14:15:37.904Z,1.90
2022-11-06T14:18:05.061Z,1.02
2022-11-06T14:20:33.562Z,1.10
2022-11-06T14:23:28.669Z,1.00
2022-11-06T14:26:16.221Z,0.82
2022-11-06T14:28:43.722Z,0.80
2022-11-06T14:31:13.208Z,1.00
2022-11-06T14:33:44.401Z,0.73
2022-11-06T14:36:28.421Z,0.70
2022-11-06T14:38:55.464Z,0.77
2022-11-06T14:41:34.738Z,0.93
2022-11-06T14:44:26.295Z,0.90
2022-11-06T14:46:59.094Z,1.17
2022-11-06T14:49:46.794Z,0.95
2022-11-06T14:52:14.984Z,0.85
2022-11-06T14:54:49.656Z,0.70
2022-11-06T14:57:17.152Z,1.10
2022-11-06T14:59:43.992Z,0.70
2022-11-06T15:02:26.301Z,0.90
2022-11-06T15:04:58.525Z,1.27
2022-11-06T15:10:59.979Z,0.90
2022-11-06T15:13:27.630Z,0.70
2022-11-06T15:16:01.944Z,0.70
2022-11-06T15:18:29.140Z,0.90
2022-11-06T15:20:57.361Z,0.70
2022-11-06T15:23:34.448Z,0.73
2022-11-06T15:26:06.945Z,0.80
2022-11-06T15:28:39.525Z,0.68
2022-11-06T15:31:08.600Z,0.82
2022-11-06T15:34:03.083Z,0.82
2022-11-06T15:36:37.732Z,0.50
2022-11-06T15:39:31.084Z,0.60
2022-11-06T15:41:58.129Z,0.60
2022-11-06T15:44:25.053Z,0.80
2022-11-06T15:46:55.725Z,0.80
2022-11-06T15:49:22.709Z,0.70
2022-11-06T15:51:57.000Z,0.70
2022-11-06T15:54:30.624Z,0.90
2022-11-06T15:56:57.579Z,0.70
2022-11-06T15:59:24.368Z,0.80
2022-11-06T16:01:51.281Z,0.68
2022-11-06T16:04:23.108Z,0.90
2022-11-06T16:06:51.137Z,0.73
2022-11-06T16:09:20.719Z,0.90
2022-11-06T16:11:48.916Z,1.30
2022-11-06T16:14:15.835Z,0.88
2022-11-06T16:16:45.952Z,0.88
2022-11-06T16:19:17.668Z,0.90
2022-11-06T16:21:49.591Z,0.80
2022-11-06T16:24:16.586Z,0.88
2022-11-06T16:26:50.524Z,0.90
2022-11-06T16:29:26.020Z,1.00
2022-11-06T16:32:04.283Z,1.20
2022-11-06T16:34:31.116Z,1.23
2022-11-06T16:36:59.901Z,0.80
2022-11-06T16:39:40.330Z,1.10
2022-11-06T16:42:22.872Z,1.08
2022-11-06T16:44:51.022Z,1.70
2022-11-06T16:47:18.530Z,1.20
2022-11-06T16:49:53.542Z,1.20
2022-11-06T16:52:39.119Z,1.10
2022-11-06T16:55:28.502Z,1.50
2022-11-06T16:57:57.018Z,1.20
2022-11-06T17:00:29.308Z,1.55
2022-11-06T17:03:01.458Z,1.17
2022-11-06T17:05:29.935Z,0.93
2022-11-06T17:08:18.736Z,1.10
2022-11-06T17:10:46.229Z,1.02
2022-11-06T17:13:17.427Z,0.80
2022-11-06T17:15:46.396Z,1.60
2022-11-06T17:18:21.697Z,0.95
2022-11-06T17:20:51.866Z,1.02
2022-11-06T17:23:19.307Z,0.93
2022-11-06T17:25:46.415Z,1.10
2022-11-06T17:28:13.362Z,1.08
2022-11-06T17:30:40.473Z,1.50
2022-11-06T17:33:07.509Z,1.10
2022-11-06T17:35:34.402Z,1.17
2022-11-06T17:38:07.064Z,1.55
2022-11-06T17:40:34.439Z,1.40
2022-11-06T17:43:01.303Z,2.03
2022-11-06T17:45:28.162Z,1.67
2022-11-06T17:47:55.033Z,1.40
2022-11-06T17:50:21.976Z,2.00
2022-11-06T17:52:48.867Z,2.25
2022-11-06T17:55:16.416Z,2.85
2022-11-06T17:57:43.376Z,2.17
2022-11-06T18:00:11.140Z,1.80
2022-11-06T18:02:59.921Z,1.83
2022-11-06T18:05:25.110Z,1.50
2022-11-06T18:07:51.941Z,1.80
2022-11-06T18:10:18.810Z,1.45
2022-11-06T18:12:45.673Z,1.55
2022-11-06T18:15:13.052Z,1.55
2022-11-06T18:17:39.957Z,1.52
2022-11-06T18:20:07.465Z,1.50
2022-11-06T18:22:34.295Z,2.13
2022-11-06T18:25:01.199Z,5.43
2022-11-06T18:27:28.071Z,4.22
2022-11-06T18:29:55.037Z,2.35
2022-11-06T18:32:21.895Z,2.40
2022-11-06T18:34:48.753Z,2.08
2022-11-06T18:37:15.683Z,2.25
2022-11-06T18:39:42.593Z,2.30
2022-11-06T18:42:09.457Z,2.95
2022-11-06T18:44:41.314Z,2.67
2022-11-06T18:47:08.283Z,2.38
2022-11-06T18:49:35.170Z,4.03
2022-11-06T18:52:02.066Z,3.47
2022-11-06T18:54:29.336Z,3.05
2022-11-06T18:56:56.194Z,2.50
2022-11-06T18:59:24.365Z,3.22
2022-11-06T19:01:51.357Z,2.35
2022-11-06T19:04:18.300Z,2.72
2022-11-06T19:06:45.263Z,2.70
2022-11-06T19:09:12.091Z,2.83
2022-11-06T19:11:39.045Z,2.97
2022-11-06T19:14:06.255Z,4.05
2022-11-06T19:16:33.203Z,7.82
2022-11-06T19:24:16.980Z,9.50
2022-11-06T19:26:43.890Z,10.80
2022-11-06T19:29:11.808Z,12.63
2022-11-06T19:31:39.417Z,17.77
2022-11-06T19:34:07.098Z,13.55
2022-11-06T19:36:34.215Z,13.32
2022-11-06T19:39:01.420Z,13.68
2022-11-06T19:41:28.567Z,9.80
2022-11-06T19:43:55.488Z,6.68
2022-11-06T19:46:25.984Z,3.47
2022-11-06T19:48:54.370Z,3.35
2022-11-06T19:51:21.240Z,2.42
2022-11-06T19:53:52.124Z,2.22
2022-11-06T19:56:19.007Z,3.33
2022-11-06T19:58:47.313Z,2.30
2022-11-06T20:01:14.528Z,2.20
2022-11-06T20:03:41.657Z,1.85
2022-11-06T20:06:08.945Z,2.28
2022-11-06T20:08:37.057Z,2.53
2022-11-06T20:11:05.346Z,2.83
2022-11-06T20:13:36.522Z,2.80
2022-11-06T20:16:08.274Z,14.82
2022-11-06T20:18:35.932Z,12.73
2022-11-06T20:21:03.667Z,7.18
2022-11-06T20:23:30.609Z,6.50
2022-11-06T20:25:57.622Z,5.53
2022-11-06T20:28:24.776Z,4.55
2022-11-06T20:30:51.722Z,4.90
2022-11-06T20:33:18.869Z,3.35
2022-11-06T20:35:45.754Z,3.80
2022-11-06T20:38:14.688Z,3.67
2022-11-06T20:40:42.597Z,2.55
2022-11-06T20:43:09.596Z,2.15
2022-11-06T20:45:37.590Z,2.40
2022-11-06T20:48:08.125Z,2.30
2022-11-06T20:50:35.039Z,1.80
2022-11-06T20:53:01.890Z,2.10
2022-11-06T20:55:29.280Z,2.25
2022-11-06T20:57:56.235Z,2.65
2022-11-06T21:00:23.230Z,2.60
2022-11-06T21:02:50.254Z,2.53
2022-11-06T21:05:17.269Z,1.85
2022-11-06T21:07:44.097Z,2.38
2022-11-06T21:10:12.307Z,2.10
2022-11-06T21:12:39.329Z,1.60
2022-11-06T21:15:06.901Z,1.20
2022-11-06T21:17:34.557Z,1.85
2022-11-06T21:20:01.416Z,1.95
2022-11-06T21:22:28.242Z,1.85
2022-11-06T21:24:55.106Z,1.70
2022-11-06T21:27:22.025Z,2.20
2022-11-06T21:29:48.905Z,1.85
2022-11-06T21:32:15.748Z,1.85
2022-11-06T21:34:42.609Z,1.58
2022-11-06T21:37:09.518Z,1.48
2022-11-06T21:39:36.918Z,1.73
2022-11-06T21:42:04.839Z,1.63
2022-11-06T21:44:31.747Z,1.83
2022-11-06T21:46:58.708Z,1.63
2022-11-06T21:49:25.562Z,2.03
2022-11-06T21:51:52.556Z,1.40
2022-11-06T21:54:38.016Z,1.67
2022-11-06T21:57:04.920Z,1.52
2022-11-06T21:59:31.809Z,1.88
2022-11-06T22:01:59.010Z,1.55
2022-11-06T22:04:26.110Z,1.67
2022-11-06T22:06:53.029Z,2.42
2022-11-06T22:09:24.858Z,1.77
2022-11-06T22:11:52.649Z,1.67
2022-11-06T22:14:19.497Z,1.55
2022-11-06T22:16:46.859Z,1.58
2022-11-06T22:19:13.798Z,1.50
2022-11-06T22:21:40.761Z,1.45
2022-11-06T22:24:07.926Z,1.52
2022-11-06T22:26:35.452Z,1.88
2022-11-06T22:29:07.442Z,1.98
2022-11-06T22:31:34.461Z,2.60
2022-11-06T22:34:01.332Z,2.78
2022-11-06T22:36:28.389Z,1.75
2022-11-06T22:38:55.355Z,2.10
2022-11-06T22:41:23.884Z,1.88
2022-11-06T22:43:51.336Z,2.10
2022-11-06T22:46:21.125Z,1.77
2022-11-06T22:48:48.378Z,2.10
2022-11-06T22:51:16.896Z,1.77
2022-11-06T22:53:43.869Z,2.20
2022-11-06T22:56:12.693Z,2.33
2022-11-06T22:58:40.275Z,2.10
2022-11-06T23:01:07.526Z,1.95
2022-11-06T23:03:34.370Z,2.35
2022-11-06T23:06:08.976Z,2.40
2022-11-06T23:08:37.110Z,1.98
2022-11-06T23:11:11.737Z,2.25
2022-11-06T23:13:39.077Z,1.65
2022-11-06T23:16:08.872Z,1.88
2022-11-06T23:18:35.849Z,2.65
2022-11-06T23:21:02.768Z,2.00
2022-11-06T23:23:29.772Z,1.90
2022-11-06T23:25:56.618Z,2.20
2022-11-06T23:28:23.452Z,2.00
2022-11-06T23:30:50.288Z,2.58
2022-11-06T23:33:17.434Z,2.08
2022-11-06T23:35:44.483Z,3.05
2022-11-06T23:38:11.414Z,1.70
2022-11-06T23:40:38.257Z,2.17
2022-11-06T23:43:05.215Z,2.83
2022-11-06T23:45:50.290Z,2.20
2022-11-06T23:48:17.350Z,1.92
2022-11-06T23:50:47.240Z,2.20
2022-11-06T23:53:16.022Z,2.13
2022-11-06T23:55:43.189Z,2.45
2022-11-06T23:58:10.052Z,2.25
